Data for 08/04/2016

Time Sea-Level Adjusted Pressure Absolute Pressure Temperature Relative Humidity Dew Point   
(mb) (inHg) (mb) (inHg) (C) (F) (%) (C) (F)
00:05 1025 30.27 854 25.22 11.5 52.7 54 2.5 36.4
00:10 1025 30.27 854 25.22 11 51.8 55 2.5 36.4
00:15 1025 30.27 854 25.22 10.7 51.3 56 2.3 36.1
00:20 1025 30.27 854 25.22 10.7 51.2 56 2.2 35.9
00:25 1025 30.27 854 25.22 10.9 51.6 54 1.9 35.4
00:30 1025 30.27 854 25.22 11.3 52.3 53 2.1 35.7
00:35 1025 30.27 854 25.22 11.5 52.7 53 2.2 36
00:40 1025 30.27 854 25.22 11.4 52.4 53 2.2 36
00:45 1025 30.27 854 25.22 11.2 52.1 54 2.2 35.9
00:50 1025 30.27 854 25.22 11.1 52 55 2.4 36.3
00:55 1025 30.27 854 25.22 10.8 51.5 56 2.5 36.4
01:00 1025 30.27 854 25.22 10.6 51.1 57 2.4 36.3
01:05 1025 30.27 854 25.22 10.3 50.5 57 2.2 35.9
01:10 1025 30.27 854 25.22 10.2 50.4 57 2.1 35.8
01:15 1025 30.27 854 25.22 10.1 50.1 58 2.1 35.9
01:20 1025 30.27 854 25.22 9.8 49.6 59 2.1 35.8
01:25 1025 30.27 854 25.22 9.6 49.4 58 1.9 35.4
01:30 1025 30.27 854 25.22 9.7 49.4 59 2 35.7
01:35 1025 30.27 854 25.22 9.5 49 59 2 35.6
01:40 1025 30.27 854 25.22 9.3 48.8 59 1.8 35.2
01:45 1025 30.27 854 25.22 9.3 48.8 59 1.8 35.2
01:50 1025 30.27 854 25.22 9.4 48.9 59 1.8 35.2
01:55 1025 30.27 854 25.22 9.2 48.6 60 1.9 35.4
02:00 1025 30.27 854 25.22 9 48.2 61 1.8 35.3
02:05 1025 30.27 854 25.22 8.9 48 61 1.8 35.3
02:10 1025 30.27 854 25.22 8.8 47.9 62 1.9 35.4
02:15 1025 30.27 854 25.22 8.7 47.6 62 1.9 35.5
02:20 1025 30.27 854 25.22 8.4 47.2 63 1.9 35.3
02:25 1025 30.27 854 25.22 8.3 47 63 1.7 35.1
02:30 1025 30.27 854 25.22 8.4 47.2 63 1.7 35.1
02:35 1025 30.27 854 25.22 8.5 47.4 62 1.8 35.2
02:40 1025 30.27 854 25.22 8.3 46.9 65 2 35.7
02:45 1025 30.27 854 25.22 7.9 46.2 66 2 35.6
02:50 1025 30.27 854 25.22 7.6 45.7 67 1.9 35.4
02:55 1025 30.27 854 25.22 7.6 45.6 67 1.9 35.4
03:00 1025 30.27 854 25.22 7.6 45.6 67 1.8 35.2
03:05 1025 30.27 854 25.22 7.7 45.8 66 1.8 35.3
03:10 1025 30.27 854 25.22 7.9 46.1 66 1.8 35.3
03:15 1025 30.27 854 25.22 7.8 46.1 66 1.9 35.5
03:20 1025 30.27 854 25.22 7.6 45.7 67 2 35.5
03:25 1025 30.27 854 25.22 7.5 45.6 68 2.1 35.8
03:30 1025 30.27 854 25.22 7.4 45.2 69 2 35.6
03:35 1025 30.27 854 25.22 7.3 45.2 68 1.8 35.2
03:40 1025 30.27 854 25.22 7.5 45.6 67 1.8 35.2
03:45 1025 30.27 854 25.22 7.6 45.7 66 1.8 35.2
03:50 1025 30.27 854 25.22 7.8 46 65 1.7 35.1
03:55 1025 30.27 854 25.22 7.8 46.1 66 1.9 35.4
04:00 1025 30.27 854 25.22 7.8 46 66 1.8 35.3
04:05 1025 30.27 854 25.22 7.8 46.1 65 1.6 34.9
04:10 1025 30.27 854 25.22 8 46.3 64 1.6 35
04:15 1025 30.27 854 25.22 8 46.3 65 1.7 35.1
04:20 1025 30.27 854 25.22 8 46.4 65 1.8 35.2
04:25 1025 30.27 854 25.22 7.9 46.2 65 1.7 35
04:30 1025 30.27 854 25.22 7.8 46.1 66 1.9 35.4
04:35 1025 30.27 854 25.22 7.6 45.6 66 1.7 35
04:40 1025 30.27 854 25.22 7.5 45.5 67 1.8 35.2
04:45 1025 30.27 854 25.22 7.3 45.1 68 1.8 35.2
04:50 1025 30.27 854 25.22 7 44.6 68 1.6 34.9
04:55 1025 30.27 854 25.22 7 44.6 68 1.6 34.9
05:00 1025 30.27 854 25.22 7.1 44.7 67 1.5 34.6
05:05 1025 30.27 854 25.22 7.4 45.4 66 1.6 34.8
05:10 1025 30.27 854 25.22 7.5 45.6 66 1.6 34.9
05:15 1025 30.27 854 25.22 7.5 45.4 67 1.7 35
05:20 1025 30.27 854 25.22 7.3 45.2 67 1.7 35
05:25 1025 30.27 854 25.22 7.2 45 67 1.6 34.9
05:30 1025 30.27 854 25.22 7.2 44.9 67 1.5 34.8
05:35 1025 30.27 854 25.22 7.2 45 67 1.6 34.8
05:40 1025 30.27 854 25.22 7.3 45.1 67 1.5 34.7
05:45 1025 30.27 854 25.22 7.3 45.1 67 1.6 34.8
05:50 1025 30.27 854 25.22 7.4 45.3 66 1.5 34.7
05:55 1025 30.27 854 25.22 7.7 45.8 65 1.5 34.7
06:00 1025 30.27 854 25.22 8.1 46.5 64 1.6 34.8
06:05 1025 30.27 854 25.22 8.4 47 63 1.7 35
06:10 1025 30.27 854 25.22 8.7 47.6 62 1.8 35.2
06:15 1025 30.27 854 25.22 8.9 48.1 61 1.8 35.2
06:20 1025 30.27 854 25.22 9.1 48.3 61 2 35.5
06:25 1025 30.27 854 25.22 9.1 48.3 60 1.9 35.4
06:30 1025 30.27 854 25.22 9.1 48.5 60 1.7 35.1
06:35 1025 30.27 854 25.22 9.2 48.5 61 2 35.7
06:40 1025 30.27 854 25.22 9.3 48.8 60 2 35.6
06:45 1025 30.27 854 25.22 9.7 49.4 59 2 35.7
06:50 1025 30.27 854 25.22 10.1 50.1 58 2.2 36
06:55 1025 30.27 854 25.22 10.3 50.5 57 2.2 35.9
07:00 1025 30.27 855 25.25 10.5 50.8 57 2.4 36.3
07:05 1025 30.27 855 25.25 10.6 51.2 57 2.5 36.4
07:10 1025 30.27 855 25.25 11.3 52.3 55 2.5 36.6
07:15 1025 30.27 854 25.22 11.9 53.4 52 2.3 36.1
07:20 1025 30.27 854 25.22 12.3 54.2 50 2.2 35.9
07:25 1025 30.27 854 25.22 12.9 55.3 48 2.2 36
07:30 1025 30.27 854 25.22 13.6 56.5 45 2.1 35.8
07:35 1025 30.27 854 25.22 13.9 57.1 44 2.1 35.8
07:40 1025 30.27 854 25.22 14.7 58.4 42 2.1 35.7
07:45 1025 30.27 854 25.22 15 58.9 42 2.4 36.3
07:50 1025 30.27 854 25.22 15.4 59.6 40 1.9 35.4
07:55 1025 30.27 854 25.22 15.1 59.2 43 2.6 36.6
08:00 1025 30.27 854 25.22 15.1 59.2 42 2.4 36.3
08:05 1025 30.27 854 25.22 15.2 59.4 41 2.2 36
08:10 1025 30.27 854 25.22 15.5 59.8 40 2.1 35.8
08:15 1025 30.27 854 25.22 15.4 59.8 41 2.4 36.4
08:20 1025 30.27 854 25.22 15.6 60.2 39 2 35.6
08:25 1025 30.27 854 25.22 16 60.9 38 1.8 35.2
08:30 1025 30.27 854 25.22 16.5 61.6 38 2 35.7
08:35 1025 30.27 854 25.22 16.1 61.1 40 2.6 36.6
08:40 1025 30.27 854 25.22 15.6 60 40 2.1 35.7
08:45 1025 30.27 854 25.22 15.7 60.3 38 1.4 34.5
08:50 1025 30.27 854 25.22 16.5 61.7 37 2 35.6
08:55 1025 30.27 854 25.22 17.1 62.8 37 2.5 36.5
09:00 1025 30.27 854 25.22 17.5 63.5 35 2 35.6
09:05 1025 30.27 854 25.22 17.4 63.4 34 1.5 34.7
09:10 1025 30.27 854 25.22 17.2 62.9 37 2.6 36.7
09:15 1025 30.27 854 25.22 17 62.5 37 2.1 35.9
09:20 1024 30.24 854 25.22 17.4 63.3 36 2.3 36.1
09:25 1024 30.24 854 25.22 17.6 63.7 35 2.1 35.8
09:30 1024 30.24 854 25.22 17 62.7 35 1.8 35.2
09:35 1024 30.24 854 25.22 18.1 64.5 34 2 35.6
09:40 1024 30.24 854 25.22 18.3 64.9 33 1.9 35.4
09:45 1024 30.24 854 25.22 18.6 65.5 33 2.2 35.9
09:50 1024 30.24 854 25.22 18.3 64.9 34 2.5 36.4
09:55 1024 30.24 854 25.22 18.8 65.8 33 2.1 35.8
10:00 1024 30.24 854 25.22 18.9 66 32 2 35.6
10:05 1024 30.24 853 25.19 19.1 66.5 32 2.4 36.3
10:10 1024 30.24 853 25.19 19.5 67 33 3 37.5
10:15 1024 30.24 853 25.19 19.2 66.5 32 2.4 36.4
10:20 1024 30.24 853 25.19 19.5 67.2 30 1.7 35
10:25 1024 30.24 853 25.19 19.4 66.9 31 1.8 35.3
10:30 1024 30.24 853 25.19 19.5 67 31 2.2 36
10:35 1024 30.24 853 25.19 19.1 66.5 31 1.7 35
10:40 1024 30.24 853 25.19 20.1 68.1 29 1.5 34.6
10:45 1024 30.24 853 25.19 20.2 68.3 29 1.6 35
10:50 1024 30.24 853 25.19 20.5 68.9 28 1.5 34.7
10:55 1024 30.24 853 25.19 20.6 69 28 1.7 35
11:00 1024 30.24 853 25.19 20.8 69.5 27 1.3 34.3
11:05 1024 30.24 853 25.19 20.9 69.6 28 1.8 35.2
11:10 1024 30.24 853 25.19 20.7 69.3 27 1 33.8
11:15 1024 30.24 853 25.19 21 69.7 26 0.8 33.5
11:20 1024 30.24 853 25.19 20.1 68.1 27 0.8 33.4
11:25 1024 30.24 853 25.19 19.7 67.5 27 0.6 33.1
11:30 1024 30.24 853 25.19 20.5 68.9 28 1.5 34.7
11:35 1024 30.24 853 25.19 20.4 68.8 27 0.9 33.7
11:40 1023 30.21 853 25.19 21.3 70.3 26 1.1 33.9
11:45 1023 30.21 853 25.19 21.4 70.5 24 0.2 32.3
11:50 1023 30.21 853 25.19 22 71.6 25 1.1 34.1
11:55 1023 30.21 852 25.16 21.9 71.3 24 0.4 32.8
12:00 1023 30.21 852 25.16 22.1 71.9 24 0.7 33.3
12:05 1023 30.21 852 25.16 22.5 72.6 23 0.3 32.6
12:10 1023 30.21 852 25.16 23 73.4 23 1.2 34.2
12:15 1023 30.21 852 25.16 22.7 72.9 23 0.6 33.1
12:20 1023 30.21 852 25.16 22.6 72.8 24 1 33.8
12:25 1023 30.21 852 25.16 22.8 73 23 1 33.8
12:30 1023 30.21 852 25.16 22.9 73.1 23 0.9 33.5
12:35 1023 30.21 852 25.16 22.8 73 22 0.4 32.7
12:40 1023 30.21 852 25.16 23 73.4 21 -0.4 31.3
12:45 1023 30.21 852 25.16 22.8 73 23 0.6 33.1
12:50 1023 30.21 852 25.16 22.9 73.2 21 -0.6 30.9
12:55 1022 30.18 852 25.16 23.6 74.5 21 0.4 32.6
13:00 1022 30.18 852 25.16 24.1 75.4 20 0.2 32.4
13:05 1022 30.18 852 25.16 24.6 76.3 18 -0.8 30.5
13:10 1022 30.18 852 25.16 24.6 76.3 18 -1 30.1
13:15 1022 30.18 852 25.16 23.8 74.9 18 -1.4 29.6
13:20 1022 30.18 852 25.16 24.1 75.4 18 -1.7 28.9
13:25 1022 30.18 851 25.13 24.4 76 19 -0.3 31.4
13:30 1022 30.18 851 25.13 24.2 75.5 19 -0.4 31.3
13:35 1022 30.18 851 25.13 24.3 75.7 18 -1.4 29.5
13:40 1022 30.18 851 25.13 23.3 74 19 -1.5 29.3
13:45 1022 30.18 851 25.13 23.9 75 18 -1.8 28.8
13:50 1022 30.18 851 25.13 25 76.9 17 -1.8 28.8
13:55 1022 30.18 851 25.13 25.4 77.6 17 -1.1 30
14:00 1022 30.18 851 25.13 25.3 77.5 17 -1.5 29.2
14:05 1022 30.18 851 25.13 25.5 78 16 -2.3 27.9
14:10 1022 30.18 851 25.13 25.4 77.7 15 -2.5 27.4
14:15 1022 30.18 851 25.13 25.2 77.4 17 -1.7 29
14:20 1022 30.18 851 25.13 25.7 78.3 15 -2.5 27.6
14:25 1022 30.18 851 25.13 25.8 78.5 15 -2.4 27.6
14:30 1022 30.18 851 25.13 26.4 79.6 14 -2.6 27.2
14:35 1022 30.18 851 25.13 26.1 78.9 16 -1.8 28.7
14:40 1021 30.15 851 25.13 25.6 78 17 -1.1 30.1
14:45 1021 30.15 851 25.13 24.5 76.1 18 -1.1 30.1
14:50 1021 30.15 851 25.13 25.3 77.6 17 -1.1 30.1
14:55 1021 30.15 851 25.13 26.1 78.9 18 0.3 32.6
15:00 1021 30.15 850 25.1 26.3 79.3 18 -0 32
15:05 1021 30.15 850 25.1 25.8 78.4 18 0.1 32.2
15:10 1021 30.15 850 25.1 25.8 78.4 17 -1.1 30
15:15 1021 30.15 850 25.1 26.1 78.9 17 -0.4 31.3
15:20 1021 30.15 850 25.1 26.1 79.1 17 -0.7 30.8
15:25 1021 30.15 850 25.1 25.7 78.3 17 -1.2 29.9
15:30 1021 30.15 850 25.1 26 78.9 15 -2.2 28
15:35 1021 30.15 850 25.1 25.8 78.5 15 -2.4 27.7
15:40 1021 30.15 850 25.1 25.8 78.5 15 -2.4 27.6
15:45 1021 30.15 850 25.1 26.5 79.6 14 -2.7 27.1
15:50 1021 30.15 850 25.1 26.4 79.6 14 -2.7 27.1
15:55 1021 30.15 850 25.1 26.2 79.1 14 -2.9 26.9
16:00 1021 30.15 850 25.1 26.1 78.9 15 -2.2 28
16:05 1021 30.15 850 25.1 26.3 79.4 16 -1.1 30
16:10 1021 30.15 850 25.1 26.3 79.3 14 -2.9 26.8
16:15 1021 30.15 850 25.1 26.2 79.2 15 -2.4 27.7
16:20 1021 30.15 850 25.1 26.4 79.5 14 -3 26.6
16:25 1021 30.15 850 25.1 26.6 79.8 14 -3.2 26.2
16:30 1021 30.15 850 25.1 26.2 79.1 14 -3 26.6
16:35 1021 30.15 850 25.1 25.9 78.6 14 -3.5 25.7
16:40 1021 30.15 850 25.1 26.5 79.7 13 -3.6 25.5
16:45 1020 30.12 850 25.1 26.9 80.5 13 -3.1 26.4
16:50 1020 30.12 850 25.1 26.8 80.2 13 -4 24.8
16:55 1020 30.12 850 25.1 26.5 79.8 13 -4.1 24.6
17:00 1020 30.12 850 25.1 26.3 79.3 12 -5.2 22.6
17:05 1020 30.12 850 25.1 26.5 79.6 12 -4.7 23.6
17:10 1020 30.12 850 25.1 26 78.8 13 -4.2 24.5
17:15 1020 30.12 849 25.07 26.3 79.3 12 -5.5 22.1
17:20 1020 30.12 849 25.07 26.6 79.8 12 -5.1 22.9
17:25 1020 30.12 849 25.07 26.6 79.9 12 -4.6 23.8
17:30 1020 30.12 849 25.07 26.1 79 12 -5.4 22.2
17:35 1020 30.12 849 25.07 26.1 79 12 -5.5 22.1
17:40 1020 30.12 849 25.07 26 78.7 12 -5.4 22.2
17:45 1020 30.12 849 25.07 25.7 78.2 12 -5.6 21.9
17:50 1020 30.12 849 25.07 25.8 78.4 12 -5.6 21.8
17:55 1020 30.12 849 25.07 25.4 77.8 12 -5.7 21.8
18:00 1020 30.12 849 25.07 25.2 77.3 12 -5.7 21.8
18:05 1020 30.12 849 25.07 25.1 77.2 13 -5.3 22.4
18:10 1020 30.12 849 25.07 25.1 77.2 13 -5.2 22.6
18:15 1020 30.12 849 25.07 24.9 76.9 12 -5.8 21.6
18:20 1020 30.12 849 25.07 24.9 76.9 13 -4.9 23.2
18:25 1020 30.12 849 25.07 24.9 76.8 14 -4.1 24.6
18:30 1020 30.12 849 25.07 24.8 76.7 13 -4.8 23.3
18:35 1020 30.12 849 25.07 24.8 76.6 13 -4.9 23.2
18:40 1020 30.12 849 25.07 24.6 76.3 14 -4 24.7
18:45 1020 30.12 849 25.07 24.4 76 14 -4.4 24
18:50 1020 30.12 849 25.07 24.4 75.9 15 -3.4 25.8
18:55 1020 30.12 849 25.07 24.2 75.6 15 -3.8 25.2
19:00 1020 30.12 849 25.07 24.2 75.5 16 -3.4 25.9
19:05 1020 30.12 849 25.07 24 75.3 17 -2 28.5
19:10 1020 30.12 849 25.07 23.8 74.8 19 -0.9 30.4
19:15 1020 30.12 849 25.07 23.6 74.4 17 -2.8 27
19:20 1020 30.12 849 25.07 23.4 74.1 19 -1.4 29.5
19:25 1020 30.12 849 25.07 23.3 73.9 17 -3 26.7
19:30 1020 30.12 849 25.07 23.4 74.1 19 -1.1 30.1
19:35 1020 30.12 849 25.07 23.1 73.5 25 2.1 35.7
19:40 1020 30.12 849 25.07 22 71.6 19 -2.8 27
19:45 1020 30.12 849 25.07 22.3 72.1 22 -0.3 31.5
19:50 1020 30.12 849 25.07 22.1 71.8 22 -0.2 31.7
19:55 1020 30.12 849 25.07 21.9 71.5 23 0.3 32.6
20:00 1020 30.12 849 25.07 21.5 70.7 24 0.4 32.7
20:05 1020 30.12 849 25.07 21.1 70 24 0.2 32.4
20:10 1020 30.12 849 25.07 20.9 69.7 25 0.3 32.5
20:15 1020 30.12 849 25.07 20.9 69.5 24 -0.2 31.7
20:20 1020 30.12 849 25.07 20.9 69.6 25 0.3 32.5
20:25 1020 30.12 849 25.07 20.4 68.8 26 0.3 32.5
20:30 1020 30.12 849 25.07 20.3 68.6 25 -0.1 31.8
20:35 1020 30.12 849 25.07 20.3 68.5 25 -0.2 31.7
20:40 1020 30.12 849 25.07 20.4 68.7 25 -0.3 31.4
20:45 1020 30.12 849 25.07 20.5 68.8 25 -0.2 31.6
20:50 1020 30.12 850 25.1 20.4 68.7 25 -0.2 31.6
20:55 1020 30.12 850 25.1 20.4 68.7 25 -0.3 31.4
21:00 1020 30.12 849 25.07 20.4 68.7 25 -0.1 31.7
21:05 1020 30.12 850 25.1 20.3 68.5 25 -0.1 31.8
21:10 1020 30.12 850 25.1 20.1 68.2 25 -0.2 31.7
21:15 1020 30.12 850 25.1 20.1 68.3 26 -0.1 31.9
21:20 1020 30.12 850 25.1 20 68 26 0.1 32.1
21:25 1020 30.12 850 25.1 19.9 67.9 26 0 32
21:30 1020 30.12 850 25.1 19.9 67.9 26 0 32.1
21:35 1020 30.12 850 25.1 19.9 67.8 27 0.3 32.5
21:40 1020 30.12 850 25.1 19.7 67.5 27 0.3 32.6
21:45 1020 30.12 850 25.1 19.8 67.6 27 0.3 32.6
21:50 1020 30.12 850 25.1 19.8 67.6 27 0.3 32.5
21:55 1020 30.12 850 25.1 19.8 67.7 27 0.4 32.8
22:00 1020 30.12 850 25.1 19.7 67.5 27 0.4 32.7
22:05 1020 30.12 850 25.1 19.7 67.5 27 0.5 32.8
22:10 1020 30.12 850 25.1 19.7 67.4 27 0.4 32.7
22:15 1020 30.12 850 25.1 19.7 67.5 27 0.5 32.8
22:20 1020 30.12 850 25.1 19.6 67.2 28 0.5 33
22:25 1020 30.12 850 25.1 19.4 66.8 28 0.5 32.9
22:30 1020 30.12 850 25.1 19.3 66.8 28 0.5 33
22:35 1020 30.12 850 25.1 19.1 66.4 28 0.5 32.9
22:40 1020 30.12 850 25.1 19.1 66.3 28 0.5 32.9
22:45 1020 30.12 850 25.1 19 66.2 29 0.5 33
22:50 1020 30.12 850 25.1 18.9 65.9 29 0.5 32.9
22:55 1020 30.12 850 25.1 18.7 65.7 29 0.5 32.9
23:00 1020 30.12 850 25.1 18.7 65.6 29 0.6 33
23:05 1020 30.12 850 25.1 18.5 65.4 29 0.5 32.9
23:10 1020 30.12 850 25.1 18.5 65.3 29 0.5 32.9
23:15 1020 30.12 849 25.07 18.4 65.2 29 0.5 32.8
23:20 1020 30.12 849 25.07 18.4 65.1 29 0.4 32.7
23:25 1020 30.12 850 25.1 18.3 65 30 0.5 32.9
23:30 1020 30.12 849 25.07 18.3 64.9 30 0.5 32.9
23:35 1020 30.12 849 25.07 18.1 64.7 30 0.6 33.1
23:40 1020 30.12 850 25.1 18.1 64.6 30 0.6 33
23:45 1020 30.12 850 25.1 18 64.5 30 0.5 32.8
23:50 1020 30.12 850 25.1 18 64.4 31 0.6 33.1
23:55 1020 30.12 850 25.1 17.8 64.1 31 0.6 33
24:00 1020 30.12 849 25.07 17.8 64 31 0.5 32.8